createdAt,value
2017-10-06T00:00:43.181Z,0
2017-10-06T00:01:43.172Z,0
2017-10-06T00:02:43.156Z,0
2017-10-06T00:03:43.154Z,0
2017-10-06T00:04:43.151Z,0
2017-10-06T00:05:42.835Z,0
2017-10-06T00:06:43.159Z,0
2017-10-06T00:07:43.171Z,0
2017-10-06T00:08:42.845Z,0
2017-10-06T00:09:42.507Z,0
2017-10-06T00:10:43.152Z,0
2017-10-06T00:11:42.504Z,0
2017-10-06T00:12:42.807Z,0
2017-10-06T00:13:42.807Z,0
2017-10-06T00:14:45.445Z,0
2017-10-06T00:15:43.154Z,0
2017-10-06T00:16:43.107Z,0
2017-10-06T00:17:42.788Z,0
2017-10-06T00:18:43.096Z,0
2017-10-06T00:19:42.472Z,0
2017-10-06T00:20:42.880Z,0
2017-10-06T00:21:42.471Z,0
2017-10-06T00:22:43.408Z,0
2017-10-06T00:23:42.774Z,0
2017-10-06T00:24:42.461Z,0
2017-10-06T00:25:42.823Z,0
2017-10-06T00:26:43.065Z,0
2017-10-06T00:27:43.376Z,0
2017-10-06T00:28:42.762Z,0
2017-10-06T00:29:43.914Z,0
2017-10-06T00:30:43.379Z,0
2017-10-06T00:31:42.742Z,0
2017-10-06T00:32:43.361Z,0
2017-10-06T00:33:43.358Z,0
2017-10-06T00:34:43.352Z,0
2017-10-06T00:35:43.368Z,0
2017-10-06T00:36:43.031Z,0
2017-10-06T00:37:43.040Z,0
2017-10-06T00:38:42.724Z,0
2017-10-06T00:39:43.028Z,0
2017-10-06T00:40:43.049Z,0
2017-10-06T00:41:43.024Z,0
2017-10-06T00:42:43.012Z,0
2017-10-06T00:43:42.389Z,0
2017-10-06T00:44:43.006Z,0
2017-10-06T00:45:42.723Z,0
2017-10-06T00:46:43.309Z,0
2017-10-06T00:47:43.004Z,0
2017-10-06T00:48:43.005Z,0
2017-10-06T00:49:42.369Z,0
2017-10-06T00:50:43.342Z,0
2017-10-06T00:51:42.368Z,0
2017-10-06T00:52:42.347Z,0
2017-10-06T00:53:43.276Z,0
2017-10-06T00:54:42.988Z,0
2017-10-06T00:55:42.730Z,0
2017-10-06T00:56:42.989Z,0
2017-10-06T00:57:42.948Z,0
2017-10-06T00:58:42.963Z,0
2017-10-06T00:59:42.627Z,0
2017-10-06T01:00:45.246Z,0
2017-10-06T01:01:42.323Z,0
2017-10-06T01:02:42.639Z,0
2017-10-06T01:03:43.250Z,0
2017-10-06T01:04:42.934Z,0
2017-10-06T01:05:42.646Z,0
2017-10-06T01:06:42.931Z,0
2017-10-06T01:07:42.934Z,0
2017-10-06T01:08:43.250Z,0
2017-10-06T01:09:42.924Z,0
2017-10-06T01:10:42.281Z,0
2017-10-06T01:11:42.904Z,0
2017-10-06T01:12:43.237Z,0
2017-10-06T01:13:42.899Z,0
2017-10-06T01:14:43.209Z,0
2017-10-06T01:15:44.117Z,0
2017-10-06T01:16:42.265Z,0
2017-10-06T01:17:43.197Z,0
2017-10-06T01:18:42.567Z,0
2017-10-06T01:19:43.179Z,0
2017-10-06T01:20:42.961Z,0
2017-10-06T01:21:42.880Z,0
2017-10-06T01:22:42.872Z,0
2017-10-06T01:23:42.239Z,0
2017-10-06T01:24:42.545Z,0
2017-10-06T01:25:42.603Z,0
2017-10-06T01:26:42.840Z,0
2017-10-06T01:27:43.151Z,0
2017-10-06T01:28:42.542Z,0
2017-10-06T01:29:42.835Z,0
2017-10-06T01:30:43.681Z,0
2017-10-06T01:31:43.144Z,0
2017-10-06T01:32:42.509Z,0
2017-10-06T01:33:42.813Z,0
2017-10-06T01:34:43.119Z,0
2017-10-06T01:35:42.509Z,0
2017-10-06T01:36:42.802Z,0
2017-10-06T01:37:42.489Z,0
2017-10-06T01:38:42.807Z,0
2017-10-06T01:39:42.808Z,0
2017-10-06T01:40:42.171Z,0
2017-10-06T01:41:42.795Z,0
2017-10-06T01:42:42.794Z,0
2017-10-06T01:43:42.783Z,0
2017-10-06T01:44:42.474Z,0
2017-10-06T01:45:42.819Z,0
2017-10-06T01:46:42.768Z,0
2017-10-06T01:47:42.471Z,0
2017-10-06T01:48:42.455Z,0
2017-10-06T01:49:42.454Z,0
2017-10-06T01:50:42.812Z,0
2017-10-06T01:51:42.755Z,0
2017-10-06T01:52:43.069Z,0
2017-10-06T01:53:43.063Z,0
2017-10-06T01:54:42.756Z,0
2017-10-06T01:55:42.473Z,0
2017-10-06T01:56:42.737Z,0
2017-10-06T01:57:42.113Z,0
2017-10-06T01:58:42.731Z,0
2017-10-06T01:59:43.039Z,0
2017-10-06T02:00:42.723Z,0
2017-10-06T02:01:44.863Z,0
2017-10-06T02:02:42.399Z,0
2017-10-06T02:03:42.712Z,0
2017-10-06T02:04:43.780Z,0
2017-10-06T02:05:43.057Z,0
2017-10-06T02:06:42.386Z,0
2017-10-06T02:07:42.389Z,0
2017-10-06T02:08:42.693Z,0
2017-10-06T02:09:42.377Z,0
2017-10-06T02:10:42.755Z,0
2017-10-06T02:11:42.071Z,0
2017-10-06T02:12:42.701Z,0
2017-10-06T02:13:42.370Z,0
2017-10-06T02:14:42.669Z,0
2017-10-06T02:15:42.662Z,0
2017-10-06T02:16:43.048Z,0
2017-10-06T02:17:42.668Z,0
2017-10-06T02:18:42.352Z,0
2017-10-06T02:19:42.959Z,0
2017-10-06T02:20:42.984Z,0
2017-10-06T02:21:42.638Z,0
2017-10-06T02:22:41.713Z,0
2017-10-06T02:23:42.320Z,0
2017-10-06T02:24:42.318Z,0
2017-10-06T02:25:42.629Z,0
2017-10-06T02:26:42.320Z,0
2017-10-06T02:27:42.304Z,0
2017-10-06T02:28:42.925Z,0
2017-10-06T02:29:42.296Z,0
2017-10-06T02:30:42.609Z,0
2017-10-06T02:31:45.777Z,0
2017-10-06T02:32:42.287Z,0
2017-10-06T02:33:42.901Z,0
2017-10-06T02:34:42.897Z,0
2017-10-06T02:35:42.599Z,0
2017-10-06T02:36:42.897Z,0
2017-10-06T02:37:42.905Z,0
2017-10-06T02:38:42.896Z,0
2017-10-06T02:39:42.261Z,0
2017-10-06T02:40:42.264Z,0
2017-10-06T02:41:42.572Z,0
2017-10-06T02:42:42.251Z,0
2017-10-06T02:43:42.007Z,0
2017-10-06T02:44:42.245Z,0
2017-10-06T02:45:42.630Z,0
2017-10-06T02:46:42.866Z,0
2017-10-06T02:47:42.851Z,0
2017-10-06T02:48:42.841Z,0
2017-10-06T02:49:42.841Z,0
2017-10-06T02:50:42.550Z,0
2017-10-06T02:51:42.523Z,0
2017-10-06T02:52:42.215Z,0
2017-10-06T02:53:42.515Z,0
2017-10-06T02:54:42.816Z,0
2017-10-06T02:55:41.930Z,0
2017-10-06T02:56:42.512Z,0
2017-10-06T02:57:42.908Z,0
2017-10-06T02:58:42.488Z,0
2017-10-06T02:59:42.176Z,0
2017-10-06T03:00:42.527Z,0
2017-10-06T03:01:42.476Z,0
2017-10-06T03:02:43.988Z,0
2017-10-06T03:03:42.163Z,0
2017-10-06T03:04:42.468Z,0
2017-10-06T03:05:42.457Z,0
2017-10-06T03:06:42.475Z,0
2017-10-06T03:07:42.454Z,0
2017-10-06T03:08:42.441Z,0
2017-10-06T03:09:42.130Z,0
2017-10-06T03:10:42.431Z,0
2017-10-06T03:11:42.115Z,0
2017-10-06T03:12:42.747Z,0
2017-10-06T03:13:42.729Z,0
2017-10-06T03:14:42.448Z,0
2017-10-06T03:15:42.766Z,0
2017-10-06T03:16:42.487Z,0
2017-10-06T03:17:44.801Z,0
2017-10-06T03:18:42.429Z,0
2017-10-06T03:19:42.416Z,0
2017-10-06T03:20:42.708Z,0
2017-10-06T03:21:42.695Z,0
2017-10-06T03:22:42.709Z,0
2017-10-06T03:23:42.081Z,0
2017-10-06T03:24:42.696Z,0
2017-10-06T03:25:42.092Z,0
2017-10-06T03:26:42.061Z,0
2017-10-06T03:27:42.058Z,0
2017-10-06T03:28:41.749Z,0
2017-10-06T03:29:42.366Z,0
2017-10-06T03:30:42.755Z,0
2017-10-06T03:31:42.361Z,0
2017-10-06T03:32:43.399Z,0
2017-10-06T03:33:42.032Z,0
2017-10-06T03:34:42.325Z,0
2017-10-06T03:35:42.373Z,0
2017-10-06T03:36:43.138Z,0
2017-10-06T03:37:42.317Z,0
2017-10-06T03:38:41.742Z,0
2017-10-06T03:39:41.710Z,0
2017-10-06T03:40:42.314Z,0
2017-10-06T03:41:42.004Z,0
2017-10-06T03:42:41.725Z,0
2017-10-06T03:43:41.684Z,0
2017-10-06T03:44:42.601Z,0
2017-10-06T03:45:42.676Z,0
2017-10-06T03:46:42.285Z,0
2017-10-06T03:47:42.586Z,0
2017-10-06T03:48:42.014Z,0
2017-10-06T03:49:42.603Z,0
2017-10-06T03:50:41.970Z,0
2017-10-06T03:51:41.963Z,0
2017-10-06T03:52:41.966Z,0
2017-10-06T03:53:41.947Z,0
2017-10-06T03:54:41.952Z,0
2017-10-06T03:55:41.939Z,0
2017-10-06T03:56:41.939Z,0
2017-10-06T03:57:42.547Z,0
2017-10-06T03:58:41.933Z,0
2017-10-06T03:59:41.621Z,0
2017-10-06T04:00:41.617Z,0
2017-10-06T04:01:42.543Z,0
2017-10-06T04:02:42.225Z,0
2017-10-06T04:03:42.425Z,0
2017-10-06T04:04:41.908Z,0
2017-10-06T04:05:41.931Z,0
2017-10-06T04:06:42.212Z,0
2017-10-06T04:07:41.888Z,0
2017-10-06T04:08:42.198Z,0
2017-10-06T04:09:41.890Z,0
2017-10-06T04:10:42.221Z,0
2017-10-06T04:11:42.503Z,0
2017-10-06T04:12:42.506Z,0
2017-10-06T04:13:42.175Z,0
2017-10-06T04:14:41.869Z,0
2017-10-06T04:15:41.931Z,0
2017-10-06T04:16:42.173Z,0
2017-10-06T04:17:42.172Z,0
2017-10-06T04:18:47.278Z,0
2017-10-06T04:19:42.165Z,0
2017-10-06T04:20:41.594Z,0
2017-10-06T04:21:42.468Z,0
2017-10-06T04:22:42.466Z,0
2017-10-06T04:23:41.832Z,0
2017-10-06T04:24:42.940Z,0
2017-10-06T04:25:42.465Z,0
2017-10-06T04:26:41.832Z,0
2017-10-06T04:27:41.888Z,0
2017-10-06T04:28:42.474Z,0
2017-10-06T04:29:41.808Z,0
2017-10-06T04:30:42.466Z,0
2017-10-06T04:31:42.419Z,0
2017-10-06T04:32:41.801Z,0
2017-10-06T04:33:42.438Z,0
2017-10-06T04:34:44.996Z,0
2017-10-06T04:35:42.120Z,0
2017-10-06T04:36:42.404Z,0
2017-10-06T04:37:42.091Z,0
2017-10-06T04:38:42.409Z,0
2017-10-06T04:39:42.415Z,0
2017-10-06T04:40:41.497Z,0
2017-10-06T04:41:42.098Z,0
2017-10-06T04:42:42.080Z,0
2017-10-06T04:43:42.378Z,0
2017-10-06T04:44:42.076Z,0
2017-10-06T04:45:42.120Z,0
2017-10-06T04:46:41.779Z,0
2017-10-06T04:47:41.745Z,0
2017-10-06T04:48:41.735Z,0
2017-10-06T04:49:42.379Z,0
2017-10-06T04:50:42.133Z,0
2017-10-06T04:51:41.788Z,0
2017-10-06T04:52:42.043Z,0
2017-10-06T04:53:41.745Z,0
2017-10-06T04:54:41.415Z,0
2017-10-06T04:55:41.095Z,0
2017-10-06T04:56:42.340Z,0
2017-10-06T04:57:41.719Z,0
2017-10-06T04:58:42.324Z,0
2017-10-06T04:59:41.703Z,0
2017-10-06T05:00:42.123Z,0
2017-10-06T05:01:42.008Z,0
2017-10-06T05:02:42.306Z,0
2017-10-06T05:03:41.688Z,0
2017-10-06T05:04:41.685Z,0
2017-10-06T05:05:41.863Z,0
2017-10-06T05:06:41.981Z,0
2017-10-06T05:07:41.683Z,0
2017-10-06T05:08:41.676Z,0
2017-10-06T05:09:41.976Z,0
2017-10-06T05:10:41.404Z,0
2017-10-06T05:11:41.665Z,0
2017-10-06T05:12:41.663Z,0
2017-10-06T05:13:41.649Z,0
2017-10-06T05:14:42.265Z,0
2017-10-06T05:15:42.328Z,0
2017-10-06T05:16:41.650Z,0
2017-10-06T05:17:41.636Z,0
2017-10-06T05:18:41.014Z,0
2017-10-06T05:19:42.247Z,0
2017-10-06T05:20:43.196Z,0
2017-10-06T05:21:42.245Z,0
2017-10-06T05:22:41.612Z,0
2017-10-06T05:23:41.610Z,0
2017-10-06T05:24:41.916Z,0
2017-10-06T05:25:42.313Z,0
2017-10-06T05:26:42.010Z,0
2017-10-06T05:27:41.904Z,0
2017-10-06T05:28:42.216Z,0
2017-10-06T05:29:41.595Z,0
2017-10-06T05:30:41.334Z,0
2017-10-06T05:31:41.895Z,0
2017-10-06T05:32:42.198Z,0
2017-10-06T05:33:41.883Z,0
2017-10-06T05:34:41.265Z,0
2017-10-06T05:35:43.564Z,0
2017-10-06T05:36:41.893Z,0
2017-10-06T05:37:42.185Z,0
2017-10-06T05:38:41.874Z,0
2017-10-06T05:39:41.882Z,0
2017-10-06T05:40:41.615Z,5
2017-10-06T05:41:41.860Z,5
2017-10-06T05:42:41.546Z,5
2017-10-06T05:43:41.547Z,5
2017-10-06T05:44:42.160Z,5
2017-10-06T05:45:41.918Z,5
2017-10-06T05:46:41.217Z,5
2017-10-06T05:47:41.841Z,5
2017-10-06T05:48:41.838Z,5
2017-10-06T05:49:41.208Z,5
2017-10-06T05:50:41.566Z,5
2017-10-06T05:51:41.509Z,10
2017-10-06T05:52:41.829Z,10
2017-10-06T05:53:41.823Z,10
2017-10-06T05:54:41.492Z,10
2017-10-06T05:55:41.838Z,10
2017-10-06T05:56:41.498Z,10
2017-10-06T05:57:42.115Z,10
2017-10-06T05:58:41.490Z,10
2017-10-06T05:59:41.795Z,10
2017-10-06T06:00:41.524Z,10
2017-10-06T06:01:41.195Z,10
2017-10-06T06:02:41.474Z,10
2017-10-06T06:03:41.490Z,10
2017-10-06T06:04:42.084Z,10
2017-10-06T06:05:41.385Z,10
2017-10-06T06:06:42.083Z,10
2017-10-06T06:07:41.149Z,10
2017-10-06T06:08:42.081Z,10
2017-10-06T06:09:42.082Z,10
2017-10-06T06:10:41.843Z,10
2017-10-06T06:11:41.745Z,10
2017-10-06T06:12:42.051Z,15
2017-10-06T06:13:41.444Z,15
2017-10-06T06:14:41.437Z,15
2017-10-06T06:15:42.062Z,15
2017-10-06T06:16:42.008Z,15
2017-10-06T06:17:42.043Z,15
2017-10-06T06:18:41.733Z,20
2017-10-06T06:19:41.733Z,20
2017-10-06T06:20:43.210Z,20
2017-10-06T06:21:41.091Z,20
2017-10-06T06:22:41.730Z,20
2017-10-06T06:23:42.027Z,20
2017-10-06T06:24:42.013Z,20
2017-10-06T06:25:41.744Z,25
2017-10-06T06:26:42.011Z,25
2017-10-06T06:27:41.694Z,25
2017-10-06T06:28:41.382Z,25
2017-10-06T06:29:41.698Z,30
2017-10-06T06:30:41.699Z,30
2017-10-06T06:31:41.690Z,30
2017-10-06T06:32:41.685Z,35
2017-10-06T06:33:41.992Z,35
2017-10-06T06:34:41.702Z,40
2017-10-06T06:35:41.364Z,40
2017-10-06T06:36:43.363Z,45
2017-10-06T06:37:41.660Z,50
2017-10-06T06:38:41.673Z,50
2017-10-06T06:39:41.655Z,50
2017-10-06T06:40:41.701Z,50
2017-10-06T06:41:41.645Z,50
2017-10-06T06:42:41.643Z,55
2017-10-06T06:43:41.340Z,55
2017-10-06T06:44:41.646Z,55
2017-10-06T06:45:41.389Z,55
2017-10-06T06:46:41.314Z,60
2017-10-06T06:47:41.619Z,65
2017-10-06T06:48:41.932Z,65
2017-10-06T06:49:41.306Z,70
2017-10-06T06:50:41.699Z,70
2017-10-06T06:51:41.299Z,70
2017-10-06T06:52:41.921Z,75
2017-10-06T06:53:41.609Z,75
2017-10-06T06:54:41.612Z,80
2017-10-06T06:55:41.358Z,80
2017-10-06T06:56:41.904Z,80
2017-10-06T06:57:41.903Z,85
2017-10-06T06:58:41.290Z,85
2017-10-06T06:59:41.902Z,90
2017-10-06T07:00:41.664Z,95
2017-10-06T07:01:41.269Z,100
2017-10-06T07:02:41.582Z,100
2017-10-06T07:03:40.960Z,105
2017-10-06T07:04:41.602Z,105
2017-10-06T07:05:41.588Z,105
2017-10-06T07:06:46.628Z,110
2017-10-06T07:07:41.270Z,110
2017-10-06T07:08:41.880Z,110
2017-10-06T07:09:41.254Z,110
2017-10-06T07:10:41.593Z,110
2017-10-06T07:11:41.562Z,110
2017-10-06T07:12:41.552Z,110
2017-10-06T07:13:40.933Z,115
2017-10-06T07:14:41.260Z,115
2017-10-06T07:15:41.647Z,120
2017-10-06T07:16:41.246Z,125
2017-10-06T07:17:41.554Z,140
2017-10-06T07:18:41.545Z,150
2017-10-06T07:19:41.226Z,170
2017-10-06T07:20:41.307Z,185
2017-10-06T07:21:41.713Z,185
2017-10-06T07:22:41.529Z,170
2017-10-06T07:23:41.840Z,150
2017-10-06T07:24:41.572Z,145
2017-10-06T07:25:41.562Z,135
2017-10-06T07:26:41.875Z,130
2017-10-06T07:27:41.549Z,130
2017-10-06T07:28:41.837Z,125
2017-10-06T07:29:41.834Z,130
2017-10-06T07:30:41.593Z,130
2017-10-06T07:31:41.513Z,150
2017-10-06T07:32:41.521Z,165
2017-10-06T07:33:41.826Z,195
2017-10-06T07:34:41.823Z,165
2017-10-06T07:35:41.857Z,145
2017-10-06T07:36:42.127Z,150
2017-10-06T07:37:41.504Z,150
2017-10-06T07:38:41.504Z,155
2017-10-06T07:39:41.505Z,240
2017-10-06T07:40:41.605Z,165
2017-10-06T07:41:41.194Z,230
2017-10-06T07:42:40.910Z,195
2017-10-06T07:43:41.193Z,160
2017-10-06T07:44:41.501Z,175
2017-10-06T07:45:41.548Z,150
2017-10-06T07:46:41.194Z,150
2017-10-06T07:47:41.520Z,140
2017-10-06T07:48:41.522Z,130
2017-10-06T07:49:41.504Z,125
2017-10-06T07:50:41.223Z,125
2017-10-06T07:51:40.895Z,125
2017-10-06T07:52:41.806Z,135
2017-10-06T07:53:41.504Z,130
2017-10-06T07:54:41.494Z,140
2017-10-06T07:55:41.189Z,165
2017-10-06T07:56:41.804Z,175
2017-10-06T07:57:41.199Z,215
2017-10-06T07:58:40.880Z,210
2017-10-06T07:59:41.499Z,235
2017-10-06T08:00:40.930Z,215
2017-10-06T08:01:41.194Z,230
2017-10-06T08:02:41.192Z,225
2017-10-06T08:03:40.876Z,220
2017-10-06T08:04:41.198Z,225
2017-10-06T08:05:41.227Z,215
2017-10-06T08:06:41.502Z,180
2017-10-06T08:07:43.549Z,210
2017-10-06T08:08:41.500Z,225
2017-10-06T08:09:40.886Z,225
2017-10-06T08:10:41.533Z,225
2017-10-06T08:11:41.195Z,220
2017-10-06T08:12:41.198Z,230
2017-10-06T08:13:40.887Z,230
2017-10-06T08:14:41.507Z,230
2017-10-06T08:15:41.572Z,235
2017-10-06T08:16:41.823Z,230
2017-10-06T08:17:41.217Z,230
2017-10-06T08:18:41.217Z,230
2017-10-06T08:19:41.497Z,230
2017-10-06T08:20:41.820Z,230
2017-10-06T08:21:40.882Z,235
2017-10-06T08:22:41.224Z,235
2017-10-06T08:23:41.505Z,235
2017-10-06T08:24:41.507Z,220
2017-10-06T08:25:41.869Z,240
2017-10-06T08:26:40.885Z,240
2017-10-06T08:27:41.515Z,245
2017-10-06T08:28:40.560Z,250
2017-10-06T08:29:41.486Z,250
2017-10-06T08:30:40.929Z,255
2017-10-06T08:31:41.812Z,235
2017-10-06T08:32:40.577Z,255
2017-10-06T08:33:40.873Z,260
2017-10-06T08:34:41.171Z,265
2017-10-06T08:35:41.474Z,270
2017-10-06T08:36:41.485Z,275
2017-10-06T08:37:41.815Z,270
2017-10-06T08:38:41.167Z,270
2017-10-06T08:39:41.172Z,265
2017-10-06T08:40:41.484Z,275
2017-10-06T08:41:41.187Z,285
2017-10-06T08:42:41.477Z,290
2017-10-06T08:43:40.874Z,290
2017-10-06T08:44:41.167Z,285
2017-10-06T08:45:41.212Z,285
2017-10-06T08:46:41.779Z,285
2017-10-06T08:47:41.173Z,255
2017-10-06T08:48:41.777Z,190
2017-10-06T08:49:41.158Z,195
2017-10-06T08:50:41.156Z,245
2017-10-06T08:51:41.158Z,220
2017-10-06T08:52:41.175Z,240
2017-10-06T08:53:41.776Z,205
2017-10-06T08:54:40.855Z,210
2017-10-06T08:55:41.198Z,255
2017-10-06T08:56:41.477Z,210
2017-10-06T08:57:41.475Z,205
2017-10-06T08:58:41.466Z,195
2017-10-06T08:59:41.168Z,205
2017-10-06T09:00:41.266Z,305
2017-10-06T09:01:41.474Z,310
2017-10-06T09:02:41.956Z,300
2017-10-06T09:03:41.165Z,230
2017-10-06T09:04:41.476Z,245
2017-10-06T09:05:41.499Z,305
2017-10-06T09:06:41.472Z,315
2017-10-06T09:07:42.716Z,290
2017-10-06T09:08:41.783Z,240
2017-10-06T09:09:41.478Z,285
2017-10-06T09:10:41.158Z,260
2017-10-06T09:11:41.485Z,200
2017-10-06T09:12:40.869Z,240
2017-10-06T09:13:40.857Z,185
2017-10-06T09:14:40.851Z,175
2017-10-06T09:15:41.527Z,175
2017-10-06T09:16:41.789Z,185
2017-10-06T09:17:41.471Z,280
2017-10-06T09:18:41.472Z,285
2017-10-06T09:19:41.472Z,220
2017-10-06T09:20:41.863Z,190
2017-10-06T09:21:41.176Z,190
2017-10-06T09:22:41.155Z,200
2017-10-06T09:23:40.846Z,215
2017-10-06T09:24:41.787Z,235
2017-10-06T09:25:41.173Z,195
2017-10-06T09:26:41.488Z,240
2017-10-06T09:27:41.481Z,200
2017-10-06T09:28:40.866Z,190
2017-10-06T09:29:41.800Z,190
2017-10-06T09:30:40.891Z,190
2017-10-06T09:31:41.474Z,190
2017-10-06T09:32:41.158Z,190
2017-10-06T09:33:41.478Z,190
2017-10-06T09:34:41.161Z,195
2017-10-06T09:35:41.488Z,190
2017-10-06T09:36:41.786Z,185
2017-10-06T09:37:42.960Z,270
2017-10-06T09:38:41.160Z,250
2017-10-06T09:39:41.481Z,215
2017-10-06T09:40:41.210Z,265
2017-10-06T09:41:41.155Z,205
2017-10-06T09:42:41.158Z,220
2017-10-06T09:43:41.457Z,190
2017-10-06T09:44:41.192Z,190
2017-10-06T09:45:41.462Z,200
2017-10-06T09:46:41.467Z,210
2017-10-06T09:47:42.261Z,245
2017-10-06T09:48:41.456Z,250
2017-10-06T10:06:06.303Z,235
2017-10-06T10:06:50.980Z,230
2017-10-06T10:07:50.669Z,220
2017-10-06T10:08:50.988Z,215
2017-10-06T10:09:51.308Z,200
2017-10-06T10:10:50.372Z,185
2017-10-06T10:11:50.367Z,175
2017-10-06T10:12:50.982Z,175
2017-10-06T10:13:50.672Z,175
2017-10-06T10:14:50.373Z,185
2017-10-06T10:15:50.975Z,195
2017-10-06T10:16:51.302Z,200
2017-10-06T10:17:50.983Z,210
2017-10-06T10:18:51.006Z,215
2017-10-06T10:19:50.834Z,220
2017-10-06T10:20:51.299Z,215
2017-10-06T10:21:50.978Z,195
2017-10-06T10:22:50.696Z,170
2017-10-06T10:23:50.666Z,160
2017-10-06T10:24:50.987Z,145
2017-10-06T10:25:50.670Z,145
2017-10-06T10:26:50.356Z,150
2017-10-06T10:27:50.672Z,170
2017-10-06T10:28:50.972Z,195
2017-10-06T10:29:50.356Z,215
2017-10-06T10:30:51.304Z,240
2017-10-06T10:31:50.670Z,255
2017-10-06T10:32:50.664Z,275
2017-10-06T10:33:51.308Z,285
2017-10-06T10:34:50.665Z,295
2017-10-06T10:35:51.299Z,300
2017-10-06T10:36:50.356Z,310
2017-10-06T10:37:50.666Z,320
2017-10-06T10:38:51.286Z,310
2017-10-06T10:39:50.659Z,300
2017-10-06T10:40:50.359Z,290
2017-10-06T10:41:50.674Z,280
2017-10-06T10:42:50.663Z,260
2017-10-06T10:43:50.968Z,245
2017-10-06T10:44:50.672Z,235
2017-10-06T10:45:50.671Z,235
2017-10-06T10:46:50.977Z,230
2017-10-06T10:47:50.673Z,225
2017-10-06T10:48:51.304Z,225
2017-10-06T10:49:50.668Z,235
2017-10-06T10:50:50.667Z,240
2017-10-06T10:51:51.970Z,250
2017-10-06T10:52:51.306Z,250
2017-10-06T10:53:50.980Z,255
2017-10-06T10:54:50.662Z,255
2017-10-06T10:55:50.665Z,250
2017-10-06T10:56:50.677Z,245
2017-10-06T10:57:50.046Z,240
2017-10-06T10:58:50.669Z,280
2017-10-06T10:59:50.673Z,245
2017-10-06T11:00:50.399Z,250
2017-10-06T11:01:50.356Z,220
2017-10-06T11:02:50.979Z,210
2017-10-06T11:03:50.360Z,200
2017-10-06T11:04:50.975Z,185
2017-10-06T11:05:50.969Z,175
2017-10-06T11:06:50.659Z,180
2017-10-06T11:07:50.656Z,190
2017-10-06T11:08:50.979Z,180
2017-10-06T11:09:50.669Z,175
2017-10-06T11:10:50.661Z,175
2017-10-06T11:11:50.669Z,175
2017-10-06T11:12:50.354Z,175
2017-10-06T11:13:51.298Z,170
2017-10-06T11:14:50.974Z,165
2017-10-06T11:15:51.031Z,170
2017-10-06T11:16:50.741Z,175
2017-10-06T11:17:51.315Z,185
2017-10-06T11:18:50.669Z,195
2017-10-06T11:19:50.971Z,205
2017-10-06T11:20:51.308Z,225
2017-10-06T11:21:50.657Z,240
2017-10-06T11:22:50.662Z,250
2017-10-06T11:23:50.654Z,260
2017-10-06T11:24:50.670Z,265
2017-10-06T11:25:50.660Z,275
2017-10-06T11:26:51.293Z,275
2017-10-06T11:27:50.665Z,275
2017-10-06T11:28:51.311Z,270
2017-10-06T11:29:51.302Z,265
2017-10-06T11:30:50.360Z,260
2017-10-06T11:31:50.971Z,245
2017-10-06T11:32:50.665Z,225
2017-10-06T11:33:50.668Z,190
2017-10-06T11:34:50.671Z,150
2017-10-06T11:35:50.665Z,115
2017-10-06T11:36:51.320Z,90
2017-10-06T11:37:51.338Z,90
2017-10-06T11:38:50.662Z,105
2017-10-06T11:39:51.304Z,115
2017-10-06T11:40:50.969Z,135
2017-10-06T11:41:51.292Z,150
2017-10-06T11:42:50.970Z,165
2017-10-06T11:43:50.670Z,190
2017-10-06T11:44:50.960Z,205
2017-10-06T11:45:50.967Z,220
2017-10-06T11:46:50.654Z,225
2017-10-06T11:47:50.681Z,235
2017-10-06T11:48:50.977Z,240
2017-10-06T11:49:50.361Z,245
2017-10-06T11:50:50.677Z,255
2017-10-06T11:51:52.080Z,260
2017-10-06T11:52:50.649Z,260
2017-10-06T11:53:50.675Z,260
2017-10-06T11:54:50.660Z,260
2017-10-06T11:55:51.292Z,260
2017-10-06T11:56:50.650Z,250
2017-10-06T11:57:50.366Z,235
2017-10-06T11:58:50.976Z,230
2017-10-06T11:59:51.288Z,225
2017-10-06T12:00:50.642Z,220
2017-10-06T12:01:51.291Z,215
2017-10-06T12:02:50.654Z,220
2017-10-06T12:03:50.676Z,215
2017-10-06T12:04:51.281Z,225
2017-10-06T12:05:50.331Z,230
2017-10-06T12:06:50.638Z,235
2017-10-06T12:07:50.330Z,245
2017-10-06T12:08:51.282Z,245
2017-10-06T12:09:51.293Z,245
2017-10-06T12:10:50.944Z,250
2017-10-06T12:11:50.950Z,260
2017-10-06T12:12:50.637Z,270
2017-10-06T12:13:50.964Z,270
2017-10-06T12:14:50.952Z,270
2017-10-06T12:15:51.330Z,285
2017-10-06T12:16:51.274Z,315
2017-10-06T12:17:50.633Z,325
2017-10-06T12:18:50.940Z,325
2017-10-06T12:19:50.952Z,325
2017-10-06T12:20:50.987Z,310
2017-10-06T12:21:50.942Z,310
2017-10-06T12:22:50.643Z,275
2017-10-06T12:23:50.943Z,265
2017-10-06T12:24:50.673Z,210
2017-10-06T12:25:50.952Z,165
2017-10-06T12:26:50.996Z,130
2017-10-06T12:27:51.276Z,105
2017-10-06T12:28:50.942Z,90
2017-10-06T12:29:50.941Z,75
2017-10-06T12:30:51.281Z,65
2017-10-06T12:31:51.256Z,55
2017-10-06T12:32:51.017Z,50
2017-10-06T12:33:50.944Z,50
2017-10-06T12:34:50.939Z,45
2017-10-06T12:35:50.636Z,40
2017-10-06T12:36:50.953Z,40
2017-10-06T12:37:51.266Z,40
2017-10-06T12:38:50.635Z,45
2017-10-06T12:39:50.936Z,45
2017-10-06T12:40:50.311Z,40
2017-10-06T12:41:51.237Z,35
2017-10-06T12:42:50.634Z,35
2017-10-06T12:43:51.293Z,35
2017-10-06T12:44:50.636Z,35
2017-10-06T12:45:50.932Z,30
2017-10-06T12:46:50.929Z,25
2017-10-06T12:47:50.930Z,25
2017-10-06T12:48:50.917Z,25
2017-10-06T12:49:50.615Z,25
2017-10-06T12:50:50.922Z,25
2017-10-06T12:51:54.264Z,30
2017-10-06T12:52:51.233Z,35
2017-10-06T12:53:50.910Z,45
2017-10-06T12:54:50.907Z,55
2017-10-06T12:55:50.902Z,60
2017-10-06T12:56:50.596Z,75
2017-10-06T12:57:51.237Z,95
2017-10-06T12:58:50.600Z,115
2017-10-06T12:59:50.593Z,135
2017-10-06T13:00:51.212Z,160
2017-10-06T13:01:50.899Z,170
2017-10-06T13:02:50.958Z,180
2017-10-06T13:03:51.301Z,190
2017-10-06T13:04:50.575Z,200
2017-10-06T13:05:49.945Z,205
2017-10-06T13:06:50.899Z,200
2017-10-06T13:07:50.872Z,180
2017-10-06T13:08:50.571Z,160
2017-10-06T13:09:51.199Z,135
2017-10-06T13:10:50.880Z,125
2017-10-06T13:11:50.877Z,120
2017-10-06T13:12:50.590Z,120
2017-10-06T13:13:50.916Z,125
2017-10-06T13:14:50.624Z,125
2017-10-06T13:15:49.985Z,130
2017-10-06T13:16:51.220Z,130
2017-10-06T13:17:50.547Z,130
2017-10-06T13:18:50.850Z,135
2017-10-06T13:19:50.874Z,150
2017-10-06T13:20:50.882Z,155
2017-10-06T13:21:50.550Z,150
2017-10-06T13:22:53.299Z,160
2017-10-06T13:23:50.842Z,170
2017-10-06T13:24:50.838Z,170
2017-10-06T13:25:51.161Z,175
2017-10-06T13:26:50.514Z,190
2017-10-06T13:27:50.828Z,205
2017-10-06T13:28:50.518Z,195
2017-10-06T13:29:51.147Z,190
2017-10-06T13:30:50.860Z,195
2017-10-06T13:31:50.839Z,215
2017-10-06T13:32:50.504Z,225
2017-10-06T13:33:51.149Z,230
2017-10-06T13:34:50.197Z,245
2017-10-06T13:35:50.499Z,235
2017-10-06T13:36:50.496Z,230
2017-10-06T13:37:51.133Z,230
2017-10-06T13:38:51.125Z,230
2017-10-06T13:39:51.105Z,230
2017-10-06T13:40:51.340Z,225
2017-10-06T13:41:50.761Z,225
2017-10-06T13:42:50.490Z,215
2017-10-06T13:43:50.487Z,195
2017-10-06T13:44:51.151Z,190
2017-10-06T13:45:50.848Z,210
2017-10-06T13:46:50.507Z,210
2017-10-06T13:47:50.787Z,205
2017-10-06T13:48:51.102Z,180
2017-10-06T13:49:50.477Z,200
2017-10-06T13:50:50.830Z,185
2017-10-06T13:51:51.087Z,180
2017-10-06T13:52:54.285Z,175
2017-10-06T13:53:50.806Z,190
2017-10-06T13:54:50.773Z,200
2017-10-06T13:55:50.796Z,195
2017-10-06T13:56:51.079Z,195
2017-10-06T13:57:50.774Z,190
2017-10-06T13:58:50.784Z,195
2017-10-06T13:59:50.791Z,195
2017-10-06T14:00:50.762Z,205
2017-10-06T14:01:50.462Z,200
2017-10-06T14:02:50.146Z,220
2017-10-06T14:03:50.770Z,195
2017-10-06T14:04:50.136Z,200
2017-10-06T14:05:51.081Z,205
2017-10-06T14:06:50.492Z,185
2017-10-06T14:07:51.121Z,215
2017-10-06T14:08:50.910Z,200
2017-10-06T14:09:50.442Z,220
2017-10-06T14:10:50.444Z,220
2017-10-06T14:11:50.750Z,215
2017-10-06T14:12:51.058Z,210
2017-10-06T14:13:50.446Z,210
2017-10-06T14:14:50.445Z,210
2017-10-06T14:15:50.749Z,210
2017-10-06T14:16:50.751Z,175
2017-10-06T14:17:50.452Z,130
2017-10-06T14:18:50.757Z,100
2017-10-06T14:19:50.762Z,80
2017-10-06T14:20:50.820Z,60
2017-10-06T14:21:50.438Z,50
2017-10-06T14:22:50.110Z,45
2017-10-06T14:23:54.556Z,50
2017-10-06T14:24:50.443Z,50
2017-10-06T14:25:50.457Z,50
2017-10-06T14:26:50.751Z,50
2017-10-06T14:27:51.043Z,50
2017-10-06T14:28:50.738Z,45
2017-10-06T14:29:50.416Z,45
2017-10-06T14:30:51.034Z,40